createdAt,value
2019-02-25T00:02:24.362Z,8.47
2019-02-25T00:05:47.601Z,8.79
2019-02-25T00:09:11.037Z,8.64
2019-02-25T00:12:34.332Z,8.44
2019-02-25T00:15:57.506Z,8.31
2019-02-25T00:19:20.654Z,8.39
2019-02-25T00:22:43.822Z,8.17
2019-02-25T00:26:06.884Z,8.07
2019-02-25T00:29:29.969Z,8.18
2019-02-25T00:32:53.209Z,8.17
2019-02-25T00:36:16.565Z,8.10
2019-02-25T00:39:39.654Z,7.94
2019-02-25T00:43:02.823Z,7.84
2019-02-25T00:46:25.952Z,8.01
2019-02-25T00:49:49.055Z,7.88
2019-02-25T00:53:12.365Z,7.93
2019-02-25T00:56:35.496Z,8.07
2019-02-25T00:59:58.900Z,7.70
2019-02-25T01:03:22.034Z,7.73
2019-02-25T01:06:45.114Z,7.65
2019-02-25T01:10:08.784Z,7.77
2019-02-25T01:13:31.862Z,7.65
2019-02-25T01:16:54.988Z,7.61
2019-02-25T01:20:18.132Z,7.78
2019-02-25T01:23:41.187Z,7.66
2019-02-25T01:27:04.371Z,7.63
2019-02-25T01:30:27.468Z,7.54
2019-02-25T01:33:50.591Z,7.49
2019-02-25T01:37:13.693Z,7.50
2019-02-25T01:40:36.793Z,7.64
2019-02-25T01:43:59.917Z,7.68
2019-02-25T01:47:23.609Z,7.65
2019-02-25T01:50:46.703Z,7.57
2019-02-25T01:54:09.824Z,7.62
2019-02-25T01:57:32.947Z,7.40
2019-02-25T02:00:56.049Z,7.45
2019-02-25T02:04:19.387Z,7.34
2019-02-25T02:07:42.482Z,7.27
2019-02-25T02:11:05.571Z,7.28
2019-02-25T02:14:28.613Z,7.28
2019-02-25T02:17:51.976Z,7.25
2019-02-25T02:21:15.081Z,7.25
2019-02-25T02:24:38.186Z,7.20
2019-02-25T02:28:01.263Z,7.11
2019-02-25T02:31:24.351Z,7.07
2019-02-25T02:34:47.457Z,7.08
2019-02-25T02:38:11.202Z,7.13
2019-02-25T02:42:28.405Z,7.03
2019-02-25T02:45:57.844Z,7.10
2019-02-25T02:49:20.937Z,7.12
2019-02-25T02:52:44.050Z,7.05
2019-02-25T02:56:06.949Z,7.15
2019-02-25T02:59:30.066Z,6.98
2019-02-25T03:02:53.169Z,6.90
2019-02-25T03:06:16.317Z,6.91
2019-02-25T03:09:39.652Z,7.08
2019-02-25T03:13:02.759Z,6.94
2019-02-25T03:16:25.857Z,6.89
2019-02-25T03:19:49.069Z,6.88
2019-02-25T03:23:12.137Z,6.68
2019-02-25T03:26:35.329Z,6.72
2019-02-25T03:29:58.391Z,6.66
2019-02-25T03:33:21.493Z,6.62
2019-02-25T03:36:44.612Z,6.67
2019-02-25T03:40:10.194Z,6.69
2019-02-25T03:43:33.290Z,6.63
2019-02-25T03:46:56.343Z,6.72
2019-02-25T03:50:19.478Z,6.57
2019-02-25T03:53:42.552Z,6.51
2019-02-25T03:57:05.656Z,6.56
2019-02-25T04:00:28.772Z,6.55
2019-02-25T04:03:51.890Z,6.59
2019-02-25T04:07:14.984Z,6.81
2019-02-25T04:10:38.343Z,6.49
2019-02-25T04:14:01.534Z,6.37
2019-02-25T04:17:24.630Z,6.35
2019-02-25T04:20:47.993Z,6.32
2019-02-25T04:24:11.087Z,6.26
2019-02-25T04:27:34.201Z,6.07
2019-02-25T04:30:57.279Z,6.18
2019-02-25T04:34:20.406Z,6.20
2019-02-25T04:37:43.539Z,6.17
2019-02-25T04:41:06.733Z,6.13
2019-02-25T04:44:29.837Z,6.13
2019-02-25T04:47:53.112Z,6.06
2019-02-25T04:51:16.217Z,6.10
2019-02-25T04:54:39.591Z,6.14
2019-02-25T04:58:02.739Z,6.27
2019-02-25T05:01:25.885Z,6.44
2019-02-25T05:04:49.006Z,6.25
2019-02-25T05:08:12.115Z,6.14
2019-02-25T05:11:36.849Z,5.99
2019-02-25T05:15:00.265Z,6.10
2019-02-25T05:18:23.533Z,6.28
2019-02-25T05:21:46.693Z,6.04
2019-02-25T05:25:10.025Z,5.95
2019-02-25T05:28:33.143Z,6.01
2019-02-25T05:31:56.233Z,5.91
2019-02-25T05:35:19.300Z,5.70
2019-02-25T05:38:42.621Z,5.66
2019-02-25T05:42:05.704Z,5.73
2019-02-25T05:45:28.832Z,5.73
2019-02-25T05:48:53.806Z,5.74
2019-02-25T05:52:17.255Z,5.68
2019-02-25T05:55:40.553Z,5.57
2019-02-25T05:59:03.741Z,5.61
2019-02-25T06:02:26.988Z,5.64
2019-02-25T06:05:50.202Z,5.42
2019-02-25T06:09:17.303Z,5.59
2019-02-25T06:12:40.418Z,5.53
2019-02-25T06:16:03.565Z,5.46
2019-02-25T06:19:27.683Z,5.67
2019-02-25T06:22:51.017Z,6.02
2019-02-25T06:26:20.037Z,6.33
2019-02-25T06:29:43.185Z,6.34
2019-02-25T06:33:06.337Z,5.98
2019-02-25T06:36:29.515Z,5.99
2019-02-25T06:39:52.685Z,6.06
2019-02-25T06:43:15.781Z,6.11
2019-02-25T06:46:38.913Z,6.23
2019-02-25T06:50:02.184Z,6.22
2019-02-25T06:53:25.543Z,6.21
2019-02-25T06:56:48.759Z,6.20
2019-02-25T07:00:16.698Z,6.27
2019-02-25T07:04:23.899Z,6.28
2019-02-25T07:08:09.295Z,6.16
2019-02-25T07:11:55.082Z,6.09
2019-02-25T07:15:35.158Z,6.03
2019-02-25T07:19:29.971Z,6.14
2019-02-25T07:23:15.551Z,6.24
2019-02-25T07:26:45.798Z,6.15
2019-02-25T07:30:31.704Z,6.29
2019-02-25T07:34:17.366Z,6.47
2019-02-25T07:38:00.904Z,6.50
2019-02-25T07:41:58.751Z,6.81
2019-02-25T07:45:37.625Z,7.06
2019-02-25T07:49:23.175Z,7.19
2019-02-25T07:53:05.921Z,7.53
2019-02-25T07:56:42.664Z,7.62
2019-02-25T08:00:18.735Z,7.90
2019-02-25T08:04:07.223Z,8.24
2019-02-25T08:07:36.118Z,8.50
2019-02-25T08:11:08.407Z,8.82
2019-02-25T08:14:39.879Z,9.09
2019-02-25T08:18:07.980Z,9.39
2019-02-25T08:21:48.864Z,9.54
2019-02-25T08:25:29.912Z,9.79
2019-02-25T08:29:27.328Z,10.02
2019-02-25T08:33:10.968Z,10.16
2019-02-25T08:37:44.037Z,10.39
2019-02-25T08:41:36.303Z,10.58
2019-02-25T08:45:20.492Z,10.75
2019-02-25T08:48:48.704Z,10.98
2019-02-25T08:52:11.868Z,11.24
2019-02-25T08:55:34.973Z,11.40
2019-02-25T08:58:58.365Z,11.64
2019-02-25T09:02:22.414Z,11.96
2019-02-25T09:05:45.513Z,12.14
2019-02-25T09:09:09.647Z,12.18
2019-02-25T09:12:32.846Z,12.35
2019-02-25T09:15:56.225Z,12.61
2019-02-25T09:19:19.515Z,12.76
2019-02-25T09:22:42.614Z,12.97
2019-02-25T09:26:05.728Z,13.20
2019-02-25T09:29:29.241Z,13.44
2019-02-25T09:32:52.526Z,13.68
2019-02-25T09:36:15.768Z,13.91
2019-02-25T09:39:39.411Z,14.30
2019-02-25T09:43:04.463Z,14.64
2019-02-25T09:46:27.610Z,15.07
2019-02-25T09:49:51.126Z,15.81
2019-02-25T09:53:14.309Z,16.77
2019-02-25T09:56:37.491Z,18.51
2019-02-25T10:00:00.698Z,21.29
2019-02-25T10:03:24.037Z,23.70
2019-02-25T10:06:47.316Z,26.51
2019-02-25T10:10:12.643Z,28.32
2019-02-25T10:13:35.940Z,28.72
2019-02-25T10:16:59.181Z,30.45
2019-02-25T10:20:22.631Z,29.95
2019-02-25T10:23:46.772Z,30.39
2019-02-25T10:27:09.939Z,30.85
2019-02-25T10:30:33.205Z,31.49
2019-02-25T10:33:56.410Z,32.16
2019-02-25T10:37:19.849Z,32.61
2019-02-25T10:40:44.950Z,33.32
2019-02-25T10:44:08.594Z,32.46
2019-02-25T10:47:32.020Z,32.16
2019-02-25T10:50:56.315Z,32.72
2019-02-25T10:54:21.248Z,33.10
2019-02-25T10:57:45.285Z,31.94
2019-02-25T11:01:13.486Z,32.72
2019-02-25T11:04:33.843Z,31.12
2019-02-25T11:07:57.313Z,30.61
2019-02-25T11:11:25.429Z,30.05
2019-02-25T11:14:49.631Z,32.45
2019-02-25T11:18:12.814Z,32.28
2019-02-25T11:21:37.611Z,32.28
2019-02-25T11:25:01.737Z,32.66
2019-02-25T11:28:26.033Z,33.25
2019-02-25T11:31:51.443Z,33.57
2019-02-25T11:35:14.931Z,33.93
2019-02-25T11:38:38.298Z,32.80
2019-02-25T11:42:03.313Z,34.13
2019-02-25T11:45:26.910Z,34.45
2019-02-25T11:48:49.995Z,34.58
2019-02-25T11:52:13.092Z,35.30
2019-02-25T11:55:36.183Z,35.56
2019-02-25T11:58:59.322Z,34.88
2019-02-25T12:02:25.588Z,33.93
2019-02-25T12:05:47.649Z,34.89
2019-02-25T12:09:10.733Z,34.98
2019-02-25T12:12:34.307Z,34.23
2019-02-25T12:15:57.415Z,33.90
2019-02-25T12:19:20.680Z,33.97
2019-02-25T12:22:44.147Z,33.00
2019-02-25T12:26:07.436Z,32.93
2019-02-25T12:29:31.061Z,32.47
2019-02-25T12:32:54.288Z,32.45
2019-02-25T12:36:18.390Z,34.20
2019-02-25T12:39:41.585Z,35.30
2019-02-25T12:43:04.700Z,34.21
2019-02-25T12:46:27.785Z,34.46
2019-02-25T12:49:51.944Z,35.40
2019-02-25T12:53:15.064Z,32.79
2019-02-25T12:56:38.590Z,34.53
2019-02-25T13:00:07.306Z,33.76
2019-02-25T13:03:30.964Z,35.00
2019-02-25T13:06:56.854Z,32.61
2019-02-25T13:10:20.268Z,33.20
2019-02-25T13:13:43.578Z,32.98
2019-02-25T13:17:06.786Z,34.19
2019-02-25T13:20:29.989Z,32.70
2019-02-25T13:23:54.708Z,35.58
2019-02-25T13:27:21.823Z,34.45
2019-02-25T13:30:44.891Z,36.00
2019-02-25T13:34:08.226Z,34.38
2019-02-25T13:37:31.459Z,35.49
2019-02-25T13:40:54.928Z,33.26
2019-02-25T13:44:18.150Z,35.06
2019-02-25T13:47:41.833Z,37.99
2019-02-25T13:51:05.017Z,39.31
2019-02-25T13:54:29.598Z,38.26
2019-02-25T13:57:53.834Z,38.42
2019-02-25T14:01:17.644Z,38.69
2019-02-25T14:04:41.350Z,39.89
2019-02-25T14:08:04.637Z,36.89
2019-02-25T14:11:27.903Z,38.31
2019-02-25T14:14:51.099Z,38.87
2019-02-25T14:18:14.200Z,39.99
2019-02-25T14:21:37.749Z,39.42
2019-02-25T14:25:03.630Z,40.76
2019-02-25T14:28:25.986Z,41.85
2019-02-25T14:31:51.089Z,40.30
2019-02-25T14:35:15.819Z,40.35
2019-02-25T14:38:39.039Z,39.11
2019-02-25T14:42:06.833Z,39.63
2019-02-25T14:45:32.142Z,40.42
2019-02-25T14:48:55.864Z,42.20
2019-02-25T14:52:19.836Z,38.77
2019-02-25T14:55:47.184Z,35.66
2019-02-25T14:59:14.545Z,37.51
2019-02-25T15:02:35.125Z,37.28
2019-02-25T15:05:59.254Z,35.96
2019-02-25T15:09:22.900Z,37.16
2019-02-25T15:12:45.975Z,35.65
2019-02-25T15:16:10.163Z,34.17
2019-02-25T15:19:34.414Z,33.76
2019-02-25T15:22:58.579Z,33.41
2019-02-25T15:26:23.553Z,35.19
2019-02-25T15:29:48.502Z,34.14
2019-02-25T15:33:12.301Z,33.86
2019-02-25T15:36:35.497Z,33.84
2019-02-25T15:39:58.601Z,34.13
2019-02-25T15:43:23.230Z,36.45
2019-02-25T15:46:46.790Z,36.53
2019-02-25T15:50:12.314Z,37.19
2019-02-25T15:53:35.537Z,37.05
2019-02-25T15:56:58.922Z,36.34
2019-02-25T16:00:25.415Z,36.92
2019-02-25T16:03:49.669Z,36.90
2019-02-25T16:07:13.107Z,37.04
2019-02-25T16:10:36.574Z,36.71
2019-02-25T16:14:01.865Z,35.41
2019-02-25T16:17:26.122Z,34.99
2019-02-25T16:20:49.316Z,32.75
2019-02-25T16:24:14.188Z,30.55
2019-02-25T16:27:37.745Z,28.54
2019-02-25T16:31:03.842Z,27.95
2019-02-25T16:34:27.184Z,26.84
2019-02-25T16:37:50.743Z,25.78
2019-02-25T16:41:16.080Z,24.85
2019-02-25T16:44:39.421Z,24.34
2019-02-25T16:48:02.812Z,23.52
2019-02-25T16:51:27.607Z,23.13
2019-02-25T16:54:51.274Z,22.93
2019-02-25T16:58:14.523Z,22.46
2019-02-25T17:01:39.890Z,22.24
2019-02-25T17:05:02.794Z,21.86
2019-02-25T17:08:28.120Z,21.82
2019-02-25T17:11:51.828Z,21.34
2019-02-25T17:15:16.574Z,21.34
2019-02-25T17:18:39.867Z,21.12
2019-02-25T17:22:05.134Z,20.81
2019-02-25T17:25:31.358Z,20.51
2019-02-25T17:28:53.743Z,20.47
2019-02-25T17:32:19.378Z,20.41
2019-02-25T17:35:44.803Z,20.14
2019-02-25T17:39:12.986Z,19.98
2019-02-25T17:42:37.024Z,19.76
2019-02-25T17:46:03.808Z,19.56
2019-02-25T17:49:26.518Z,19.43
2019-02-25T17:52:50.127Z,19.00
2019-02-25T17:56:13.380Z,18.97
2019-02-25T17:59:36.511Z,18.92
2019-02-25T18:03:01.493Z,18.55
2019-02-25T18:06:29.462Z,18.38
2019-02-25T18:09:50.181Z,18.21
2019-02-25T18:13:13.660Z,18.45
2019-02-25T18:16:39.117Z,18.44
2019-02-25T18:20:02.855Z,17.88
2019-02-25T18:23:26.151Z,17.72
2019-02-25T18:26:49.369Z,17.37
2019-02-25T18:30:13.816Z,17.09
2019-02-25T18:33:37.770Z,16.83
2019-02-25T18:37:01.219Z,16.62
2019-02-25T18:40:25.011Z,16.54
2019-02-25T18:43:49.418Z,16.19
2019-02-25T18:47:16.363Z,16.26
2019-02-25T18:50:40.359Z,16.15
2019-02-25T18:54:03.912Z,16.02
2019-02-25T18:57:28.993Z,16.27
2019-02-25T19:00:52.357Z,16.08
2019-02-25T19:04:17.133Z,16.05
2019-02-25T19:07:40.812Z,15.98
2019-02-25T19:11:04.262Z,15.81
2019-02-25T19:14:28.843Z,15.50
2019-02-25T19:17:54.394Z,15.39
2019-02-25T19:21:17.982Z,15.20
2019-02-25T19:24:42.276Z,14.99
2019-02-25T19:28:06.650Z,14.94
2019-02-25T19:31:30.409Z,15.03
2019-02-25T19:34:55.992Z,14.97
2019-02-25T19:38:18.857Z,15.21
2019-02-25T19:41:45.087Z,14.96
2019-02-25T19:45:10.108Z,14.46
2019-02-25T19:48:33.653Z,14.35
2019-02-25T19:51:56.829Z,14.45
2019-02-25T19:55:21.047Z,14.37
2019-02-25T19:58:45.273Z,13.79
2019-02-25T20:02:11.172Z,14.03
2019-02-25T20:05:38.838Z,13.98
2019-02-25T20:09:00.501Z,13.88
2019-02-25T20:12:23.836Z,13.68
2019-02-25T20:15:48.993Z,13.53
2019-02-25T20:19:13.506Z,13.69
2019-02-25T20:22:38.614Z,13.53
2019-02-25T20:26:02.197Z,13.31
2019-02-25T20:29:26.181Z,13.18
2019-02-25T20:32:49.837Z,12.76
2019-02-25T20:36:17.163Z,13.03
2019-02-25T20:39:44.701Z,12.74
2019-02-25T20:43:08.541Z,12.86
2019-02-25T20:46:35.420Z,13.01
2019-02-25T20:50:03.295Z,12.81
2019-02-25T20:53:29.440Z,12.80
2019-02-25T20:56:55.457Z,12.64
2019-02-25T21:00:20.025Z,12.51
2019-02-25T21:03:45.830Z,12.34
2019-02-25T21:07:11.495Z,12.35
2019-02-25T21:10:35.655Z,12.39
2019-02-25T21:13:59.701Z,12.30
2019-02-25T21:17:23.103Z,12.29
2019-02-25T21:20:51.411Z,11.92
2019-02-25T21:24:15.273Z,11.82
2019-02-25T21:27:40.787Z,11.82
2019-02-25T21:31:07.197Z,11.74
2019-02-25T21:34:31.216Z,11.50
2019-02-25T21:37:55.795Z,11.51
2019-02-25T21:41:20.211Z,11.50
2019-02-25T21:44:46.106Z,11.31
2019-02-25T21:48:09.647Z,11.48
2019-02-25T21:51:35.142Z,11.29
2019-02-25T21:55:00.009Z,11.24
2019-02-25T21:58:25.454Z,10.90
2019-02-25T22:01:50.040Z,10.99
2019-02-25T22:05:14.187Z,10.87
2019-02-25T22:08:39.140Z,10.70
2019-02-25T22:12:02.713Z,10.55
2019-02-25T22:15:25.944Z,10.42
2019-02-25T22:18:50.370Z,10.40
2019-02-25T22:22:16.285Z,10.32
2019-02-25T22:25:39.800Z,10.66
2019-02-25T22:29:03.068Z,10.48
2019-02-25T22:32:26.656Z,10.77
2019-02-25T22:35:51.771Z,10.59
2019-02-25T22:39:15.342Z,10.36
2019-02-25T22:42:38.691Z,10.38
2019-02-25T22:46:02.488Z,10.22
2019-02-25T22:49:28.862Z,10.30
2019-02-25T22:52:58.249Z,10.19
2019-02-25T22:56:18.336Z,10.10
2019-02-25T22:59:42.859Z,9.94
2019-02-25T23:03:06.718Z,10.05
2019-02-25T23:06:30.028Z,9.95
2019-02-25T23:09:54.409Z,9.70
2019-02-25T23:13:20.003Z,9.81
2019-02-25T23:16:44.171Z,9.75
2019-02-25T23:20:09.394Z,9.77
2019-02-25T23:23:35.630Z,9.90
2019-02-25T23:26:59.659Z,9.73
2019-02-25T23:30:23.416Z,9.58
2019-02-25T23:33:48.981Z,9.52
2019-02-25T23:37:14.733Z,9.26
2019-02-25T23:40:38.306Z,9.17
2019-02-25T23:44:02.635Z,9.09
2019-02-25T23:47:28.806Z,9.19
2019-02-25T23:50:53.337Z,9.20
2019-02-25T23:54:18.491Z,9.22
2019-02-25T23:57:42.173Z,9.22
